Disclaimer

Please do not use the information listed here in-flight or in-navigation, as they are not provided to us by the airports but are provided by volunteers, so they might be outdated.

Search


Regions


Airport information page

Radio informations:
Automatic Terminal Information Service (ATIS) - 129.925 MHz

Airport informations:
Latitude: 55° 02' 39.09" N
Longitude: 008° 20' 27.60" W
Elevation: 30 feet - 9 meters
Operating hours: Remarks
Operating agency: Civil government, landing fees and diplomatic clearance may be required
Timezone: UTC 0(+1DT) - Last Sunday in March to last Sunday in October
Fuel: Jet A1, without icing nhibitor.

100/130 MIL Spec, low lead, aviation gasoline (BLUE)

Runway information:
03/21 - 4908 x 98 feet< - >1496 x 30 meters

Recent METARs:
EIDL 201900Z 09016KT 9999 -RA FEW033 SCT042 06/02 Q1016
EIDL 201900Z 09016KT 9999 -RA FEW033 SCT042 06/02 Q1016
EIDL 201900Z 09016KT 9999 -RA FEW033 SCT042 06/02 Q1016

Airport on the map: